sensor_id;sensor_type;location;lat;lon;timestamp;P1;durP1;ratioP1;P2;durP2;ratioP2
80278;SDS011;70683;52.492;13.416;2023-08-30T00:01:50;4.53;;;2.95;;
80278;SDS011;70683;52.492;13.416;2023-08-30T00:04:17;8.18;;;3.27;;
80278;SDS011;70683;52.492;13.416;2023-08-30T00:06:44;6.35;;;3.80;;
80278;SDS011;70683;52.492;13.416;2023-08-30T00:09:10;8.10;;;4.40;;
80278;SDS011;70683;52.492;13.416;2023-08-30T00:11:38;8.23;;;3.90;;
80278;SDS011;70683;52.492;13.416;2023-08-30T00:14:05;8.48;;;3.83;;
80278;SDS011;70683;52.492;13.416;2023-08-30T00:16:33;6.42;;;3.42;;
80278;SDS011;70683;52.492;13.416;2023-08-30T00:19:00;6.53;;;3.58;;
80278;SDS011;70683;52.492;13.416;2023-08-30T00:21:27;5.85;;;3.52;;
80278;SDS011;70683;52.492;13.416;2023-08-30T00:23:54;7.87;;;3.58;;
80278;SDS011;70683;52.492;13.416;2023-08-30T00:26:20;7.80;;;4.03;;
80278;SDS011;70683;52.492;13.416;2023-08-30T00:28:47;5.67;;;4.03;;
80278;SDS011;70683;52.492;13.416;2023-08-30T00:31:13;11.28;;;4.37;;
80278;SDS011;70683;52.492;13.416;2023-08-30T00:33:40;7.40;;;4.00;;
80278;SDS011;70683;52.492;13.416;2023-08-30T00:36:07;5.42;;;3.47;;
80278;SDS011;70683;52.492;13.416;2023-08-30T00:38:33;5.12;;;3.47;;
80278;SDS011;70683;52.492;13.416;2023-08-30T00:41:00;7.20;;;3.60;;
80278;SDS011;70683;52.492;13.416;2023-08-30T00:43:27;6.00;;;3.30;;
80278;SDS011;70683;52.492;13.416;2023-08-30T00:45:53;6.85;;;3.80;;
80278;SDS011;70683;52.492;13.416;2023-08-30T00:48:20;4.78;;;3.10;;
80278;SDS011;70683;52.492;13.416;2023-08-30T00:50:47;5.10;;;3.25;;
80278;SDS011;70683;52.492;13.416;2023-08-30T00:53:14;5.55;;;3.62;;
80278;SDS011;70683;52.492;13.416;2023-08-30T00:55:42;5.67;;;2.95;;
80278;SDS011;70683;52.492;13.416;2023-08-30T00:58:09;6.15;;;3.62;;
80278;SDS011;70683;52.492;13.416;2023-08-30T01:00:38;7.22;;;3.30;;
80278;SDS011;70683;52.492;13.416;2023-08-30T01:03:06;5.80;;;2.90;;
80278;SDS011;70683;52.492;13.416;2023-08-30T01:05:34;7.55;;;3.02;;
80278;SDS011;70683;52.492;13.416;2023-08-30T01:08:01;4.50;;;2.70;;
80278;SDS011;70683;52.492;13.416;2023-08-30T01:10:31;9.35;;;3.02;;
80278;SDS011;70683;52.492;13.416;2023-08-30T01:13:03;7.37;;;3.35;;
80278;SDS011;70683;52.492;13.416;2023-08-30T01:15:30;7.17;;;3.08;;
80278;SDS011;70683;52.492;13.416;2023-08-30T01:17:58;5.53;;;2.83;;
80278;SDS011;70683;52.492;13.416;2023-08-30T01:20:26;4.30;;;2.40;;
80278;SDS011;70683;52.492;13.416;2023-08-30T01:22:58;5.70;;;2.83;;
80278;SDS011;70683;52.492;13.416;2023-08-30T01:28:03;4.92;;;2.65;;
80278;SDS011;70683;52.492;13.416;2023-08-30T01:30:32;8.35;;;3.02;;
80278;SDS011;70683;52.492;13.416;2023-08-30T01:33:03;4.30;;;2.95;;
80278;SDS011;70683;52.492;13.416;2023-08-30T01:35:32;6.60;;;3.15;;
80278;SDS011;70683;52.492;13.416;2023-08-30T01:38:02;6.45;;;2.98;;
80278;SDS011;70683;52.492;13.416;2023-08-30T01:40:36;5.50;;;2.80;;
80278;SDS011;70683;52.492;13.416;2023-08-30T01:43:01;4.40;;;2.70;;
80278;SDS011;70683;52.492;13.416;2023-08-30T01:45:32;4.95;;;2.72;;
80278;SDS011;70683;52.492;13.416;2023-08-30T01:48:00;5.70;;;2.67;;
80278;SDS011;70683;52.492;13.416;2023-08-30T01:50:29;3.45;;;2.50;;
80278;SDS011;70683;52.492;13.416;2023-08-30T01:52:56;5.72;;;2.72;;
80278;SDS011;70683;52.492;13.416;2023-08-30T01:55:23;3.77;;;2.60;;
80278;SDS011;70683;52.492;13.416;2023-08-30T01:57:52;4.10;;;2.33;;
80278;SDS011;70683;52.492;13.416;2023-08-30T02:00:19;3.87;;;2.83;;
80278;SDS011;70683;52.492;13.416;2023-08-30T02:02:46;5.83;;;2.70;;
80278;SDS011;70683;52.492;13.416;2023-08-30T02:05:14;5.30;;;2.75;;
80278;SDS011;70683;52.492;13.416;2023-08-30T02:08:16;4.58;;;2.80;;
80278;SDS011;70683;52.492;13.416;2023-08-30T02:10:34;5.95;;;2.90;;
80278;SDS011;70683;52.492;13.416;2023-08-30T02:13:02;4.90;;;2.65;;
80278;SDS011;70683;52.492;13.416;2023-08-30T02:15:31;6.03;;;2.92;;
80278;SDS011;70683;52.492;13.416;2023-08-30T02:18:01;6.40;;;2.50;;
80278;SDS011;70683;52.492;13.416;2023-08-30T02:20:31;5.10;;;2.72;;
80278;SDS011;70683;52.492;13.416;2023-08-30T02:22:58;4.40;;;2.83;;
80278;SDS011;70683;52.492;13.416;2023-08-30T02:25:25;5.45;;;2.62;;
80278;SDS011;70683;52.492;13.416;2023-08-30T02:27:52;5.55;;;3.12;;
80278;SDS011;70683;52.492;13.416;2023-08-30T02:30:19;3.33;;;2.52;;
80278;SDS011;70683;52.492;13.416;2023-08-30T02:32:45;3.65;;;2.60;;
80278;SDS011;70683;52.492;13.416;2023-08-30T02:35:12;6.58;;;2.70;;
80278;SDS011;70683;52.492;13.416;2023-08-30T02:37:38;5.60;;;2.72;;
80278;SDS011;70683;52.492;13.416;2023-08-30T02:40:07;4.85;;;2.80;;
80278;SDS011;70683;52.492;13.416;2023-08-30T02:42:34;5.45;;;2.87;;
80278;SDS011;70683;52.492;13.416;2023-08-30T02:45:01;5.03;;;2.62;;
80278;SDS011;70683;52.492;13.416;2023-08-30T02:47:28;4.25;;;2.47;;
80278;SDS011;70683;52.492;13.416;2023-08-30T02:49:54;3.47;;;2.87;;
80278;SDS011;70683;52.492;13.416;2023-08-30T02:52:21;4.60;;;2.65;;
80278;SDS011;70683;52.492;13.416;2023-08-30T02:54:47;2.65;;;2.35;;
80278;SDS011;70683;52.492;13.416;2023-08-30T02:57:14;4.62;;;2.40;;
80278;SDS011;70683;52.492;13.416;2023-08-30T02:59:41;5.95;;;2.67;;
80278;SDS011;70683;52.492;13.416;2023-08-30T03:02:07;4.22;;;2.55;;
80278;SDS011;70683;52.492;13.416;2023-08-30T03:04:34;5.42;;;2.47;;
80278;SDS011;70683;52.492;13.416;2023-08-30T03:07:01;5.37;;;2.98;;
80278;SDS011;70683;52.492;13.416;2023-08-30T03:09:28;6.20;;;2.70;;
80278;SDS011;70683;52.492;13.416;2023-08-30T03:11:54;5.25;;;2.60;;
80278;SDS011;70683;52.492;13.416;2023-08-30T03:14:21;3.75;;;2.62;;
80278;SDS011;70683;52.492;13.416;2023-08-30T03:16:48;5.40;;;3.30;;
80278;SDS011;70683;52.492;13.416;2023-08-30T03:19:14;4.97;;;2.80;;
80278;SDS011;70683;52.492;13.416;2023-08-30T03:21:43;6.65;;;3.00;;
80278;SDS011;70683;52.492;13.416;2023-08-30T03:24:09;4.35;;;2.80;;
80278;SDS011;70683;52.492;13.416;2023-08-30T03:26:36;5.72;;;3.37;;
80278;SDS011;70683;52.492;13.416;2023-08-30T03:29:02;6.60;;;3.25;;
80278;SDS011;70683;52.492;13.416;2023-08-30T03:31:29;5.42;;;3.33;;
80278;SDS011;70683;52.492;13.416;2023-08-30T03:33:56;6.45;;;4.22;;
80278;SDS011;70683;52.492;13.416;2023-08-30T03:36:22;6.35;;;3.95;;
80278;SDS011;70683;52.492;13.416;2023-08-30T03:38:49;6.83;;;4.22;;
80278;SDS011;70683;52.492;13.416;2023-08-30T03:41:15;7.08;;;4.78;;
80278;SDS011;70683;52.492;13.416;2023-08-30T03:43:42;6.22;;;3.72;;
80278;SDS011;70683;52.492;13.416;2023-08-30T03:46:09;6.75;;;4.60;;
80278;SDS011;70683;52.492;13.416;2023-08-30T03:48:37;8.45;;;5.58;;
80278;SDS011;70683;52.492;13.416;2023-08-30T03:51:04;9.05;;;4.25;;
80278;SDS011;70683;52.492;13.416;2023-08-30T03:53:31;7.90;;;4.72;;
80278;SDS011;70683;52.492;13.416;2023-08-30T03:55:57;5.97;;;4.50;;
80278;SDS011;70683;52.492;13.416;2023-08-30T03:58:25;8.83;;;4.70;;
80278;SDS011;70683;52.492;13.416;2023-08-30T04:00:51;6.83;;;3.92;;
80278;SDS011;70683;52.492;13.416;2023-08-30T04:03:18;7.00;;;4.37;;
80278;SDS011;70683;52.492;13.416;2023-08-30T04:05:45;7.45;;;4.40;;
80278;SDS011;70683;52.492;13.416;2023-08-30T04:08:11;5.30;;;4.53;;
80278;SDS011;70683;52.492;13.416;2023-08-30T04:10:39;9.63;;;5.17;;
80278;SDS011;70683;52.492;13.416;2023-08-30T04:13:07;5.42;;;4.17;;
80278;SDS011;70683;52.492;13.416;2023-08-30T04:15:35;5.65;;;4.30;;
80278;SDS011;70683;52.492;13.416;2023-08-30T04:18:03;4.70;;;3.62;;
80278;SDS011;70683;52.492;13.416;2023-08-30T04:20:31;6.67;;;4.33;;
80278;SDS011;70683;52.492;13.416;2023-08-30T04:22:59;6.70;;;4.70;;
80278;SDS011;70683;52.492;13.416;2023-08-30T04:25:27;10.28;;;4.67;;
80278;SDS011;70683;52.492;13.416;2023-08-30T04:27:55;9.00;;;4.45;;
80278;SDS011;70683;52.492;13.416;2023-08-30T04:30:22;8.93;;;5.03;;
80278;SDS011;70683;52.492;13.416;2023-08-30T04:32:49;5.33;;;4.10;;
80278;SDS011;70683;52.492;13.416;2023-08-30T04:35:15;9.03;;;4.08;;
80278;SDS011;70683;52.492;13.416;2023-08-30T04:37:42;9.35;;;6.50;;
80278;SDS011;70683;52.492;13.416;2023-08-30T04:40:09;6.15;;;3.70;;
80278;SDS011;70683;52.492;13.416;2023-08-30T04:42:36;10.25;;;4.58;;
80278;SDS011;70683;52.492;13.416;2023-08-30T04:45:06;8.80;;;4.22;;
80278;SDS011;70683;52.492;13.416;2023-08-30T04:47:33;7.28;;;3.95;;
80278;SDS011;70683;52.492;13.416;2023-08-30T04:49:59;9.58;;;3.90;;
80278;SDS011;70683;52.492;13.416;2023-08-30T04:52:26;8.25;;;3.87;;
80278;SDS011;70683;52.492;13.416;2023-08-30T04:54:53;5.67;;;3.92;;
80278;SDS011;70683;52.492;13.416;2023-08-30T04:57:20;8.28;;;4.30;;
80278;SDS011;70683;52.492;13.416;2023-08-30T04:59:46;9.60;;;4.33;;
80278;SDS011;70683;52.492;13.416;2023-08-30T05:02:14;6.47;;;4.28;;
80278;SDS011;70683;52.492;13.416;2023-08-30T05:04:41;7.80;;;3.80;;
80278;SDS011;70683;52.492;13.416;2023-08-30T05:07:07;6.08;;;3.77;;
80278;SDS011;70683;52.492;13.416;2023-08-30T05:09:34;6.42;;;4.67;;
80278;SDS011;70683;52.492;13.416;2023-08-30T05:12:00;5.80;;;3.42;;
80278;SDS011;70683;52.492;13.416;2023-08-30T05:14:27;4.67;;;3.50;;
80278;SDS011;70683;52.492;13.416;2023-08-30T05:16:54;6.45;;;3.17;;
80278;SDS011;70683;52.492;13.416;2023-08-30T05:19:21;5.62;;;3.22;;
80278;SDS011;70683;52.492;13.416;2023-08-30T05:21:47;7.80;;;3.83;;
80278;SDS011;70683;52.492;13.416;2023-08-30T05:24:16;6.15;;;4.05;;
80278;SDS011;70683;52.492;13.416;2023-08-30T05:26:43;5.28;;;3.80;;
80278;SDS011;70683;52.492;13.416;2023-08-30T05:29:12;8.05;;;3.50;;
80278;SDS011;70683;52.492;13.416;2023-08-30T05:31:41;4.22;;;3.33;;
80278;SDS011;70683;52.492;13.416;2023-08-30T05:34:08;5.85;;;3.15;;
80278;SDS011;70683;52.492;13.416;2023-08-30T05:36:34;4.22;;;2.75;;
80278;SDS011;70683;52.492;13.416;2023-08-30T05:39:01;5.33;;;2.58;;
80278;SDS011;70683;52.492;13.416;2023-08-30T05:41:29;4.40;;;2.90;;
80278;SDS011;70683;52.492;13.416;2023-08-30T05:43:56;5.62;;;2.80;;
80278;SDS011;70683;52.492;13.416;2023-08-30T05:46:22;6.17;;;2.87;;
80278;SDS011;70683;52.492;13.416;2023-08-30T05:48:49;5.42;;;3.00;;
80278;SDS011;70683;52.492;13.416;2023-08-30T05:51:15;4.15;;;3.10;;
80278;SDS011;70683;52.492;13.416;2023-08-30T05:53:42;5.03;;;3.22;;
80278;SDS011;70683;52.492;13.416;2023-08-30T05:56:09;4.10;;;2.70;;
80278;SDS011;70683;52.492;13.416;2023-08-30T05:58:35;5.97;;;3.67;;
80278;SDS011;70683;52.492;13.416;2023-08-30T06:01:04;5.65;;;3.10;;
80278;SDS011;70683;52.492;13.416;2023-08-30T06:03:32;6.08;;;2.50;;
80278;SDS011;70683;52.492;13.416;2023-08-30T06:06:00;7.37;;;3.25;;
80278;SDS011;70683;52.492;13.416;2023-08-30T06:08:27;3.77;;;2.72;;
80278;SDS011;70683;52.492;13.416;2023-08-30T06:10:54;6.05;;;3.45;;
80278;SDS011;70683;52.492;13.416;2023-08-30T06:13:20;6.92;;;3.08;;
80278;SDS011;70683;52.492;13.416;2023-08-30T06:15:50;8.93;;;3.17;;
80278;SDS011;70683;52.492;13.416;2023-08-30T06:18:18;7.40;;;3.47;;
80278;SDS011;70683;52.492;13.416;2023-08-30T06:20:45;9.28;;;3.70;;
80278;SDS011;70683;52.492;13.416;2023-08-30T06:23:13;4.65;;;3.30;;
80278;SDS011;70683;52.492;13.416;2023-08-30T06:25:41;5.50;;;3.10;;
80278;SDS011;70683;52.492;13.416;2023-08-30T06:28:08;8.35;;;3.65;;
80278;SDS011;70683;52.492;13.416;2023-08-30T06:30:34;3.50;;;2.62;;
80278;SDS011;70683;52.492;13.416;2023-08-30T06:33:01;5.60;;;3.00;;
80278;SDS011;70683;52.492;13.416;2023-08-30T06:35:28;6.50;;;3.40;;
80278;SDS011;70683;52.492;13.416;2023-08-30T06:37:54;4.12;;;3.20;;
80278;SDS011;70683;52.492;13.416;2023-08-30T06:40:21;7.22;;;3.55;;
80278;SDS011;70683;52.492;13.416;2023-08-30T06:42:48;4.87;;;3.00;;
80278;SDS011;70683;52.492;13.416;2023-08-30T06:45:14;11.15;;;3.98;;
80278;SDS011;70683;52.492;13.416;2023-08-30T06:47:42;4.55;;;2.80;;
80278;SDS011;70683;52.492;13.416;2023-08-30T06:50:08;17.52;;;3.40;;
80278;SDS011;70683;52.492;13.416;2023-08-30T06:52:35;5.80;;;3.10;;
80278;SDS011;70683;52.492;13.416;2023-08-30T06:55:02;7.40;;;3.05;;
80278;SDS011;70683;52.492;13.416;2023-08-30T06:57:29;7.40;;;2.55;;
80278;SDS011;70683;52.492;13.416;2023-08-30T06:59:56;7.40;;;2.72;;
80278;SDS011;70683;52.492;13.416;2023-08-30T07:02:25;6.22;;;2.80;;
80278;SDS011;70683;52.492;13.416;2023-08-30T07:04:52;4.47;;;2.40;;
80278;SDS011;70683;52.492;13.416;2023-08-30T07:07:18;8.40;;;2.90;;
80278;SDS011;70683;52.492;13.416;2023-08-30T07:09:45;9.08;;;3.30;;
80278;SDS011;70683;52.492;13.416;2023-08-30T07:12:12;4.65;;;2.67;;
80278;SDS011;70683;52.492;13.416;2023-08-30T07:14:38;4.10;;;2.70;;
80278;SDS011;70683;52.492;13.416;2023-08-30T07:17:05;6.60;;;3.22;;
80278;SDS011;70683;52.492;13.416;2023-08-30T07:19:32;7.92;;;2.70;;
80278;SDS011;70683;52.492;13.416;2023-08-30T07:22:00;6.17;;;2.62;;
80278;SDS011;70683;52.492;13.416;2023-08-30T07:24:27;5.97;;;2.40;;
80278;SDS011;70683;52.492;13.416;2023-08-30T07:26:53;5.28;;;2.70;;
80278;SDS011;70683;52.492;13.416;2023-08-30T07:29:20;12.07;;;2.60;;
80278;SDS011;70683;52.492;13.416;2023-08-30T07:31:47;7.03;;;3.25;;
80278;SDS011;70683;52.492;13.416;2023-08-30T07:34:16;5.95;;;2.95;;
80278;SDS011;70683;52.492;13.416;2023-08-30T07:36:42;6.85;;;2.62;;
80278;SDS011;70683;52.492;13.416;2023-08-30T07:39:09;8.33;;;3.17;;
80278;SDS011;70683;52.492;13.416;2023-08-30T07:41:36;10.63;;;2.92;;
80278;SDS011;70683;52.492;13.416;2023-08-30T07:44:02;10.20;;;3.02;;
80278;SDS011;70683;52.492;13.416;2023-08-30T07:46:30;8.23;;;3.25;;
80278;SDS011;70683;52.492;13.416;2023-08-30T07:48:56;8.73;;;3.55;;
80278;SDS011;70683;52.492;13.416;2023-08-30T07:51:23;5.60;;;2.80;;
80278;SDS011;70683;52.492;13.416;2023-08-30T07:53:49;6.83;;;4.03;;
80278;SDS011;70683;52.492;13.416;2023-08-30T07:56:16;6.50;;;3.00;;
80278;SDS011;70683;52.492;13.416;2023-08-30T07:58:43;6.80;;;3.30;;
80278;SDS011;70683;52.492;13.416;2023-08-30T08:01:09;9.98;;;3.20;;
80278;SDS011;70683;52.492;13.416;2023-08-30T08:03:36;8.68;;;3.27;;
80278;SDS011;70683;52.492;13.416;2023-08-30T08:06:03;6.67;;;3.33;;
80278;SDS011;70683;52.492;13.416;2023-08-30T08:08:29;8.40;;;2.50;;
80278;SDS011;70683;52.492;13.416;2023-08-30T08:10:56;5.00;;;2.62;;
80278;SDS011;70683;52.492;13.416;2023-08-30T08:13:22;5.92;;;2.33;;
80278;SDS011;70683;52.492;13.416;2023-08-30T08:15:49;6.80;;;2.45;;
80278;SDS011;70683;52.492;13.416;2023-08-30T08:18:16;5.92;;;2.10;;
80278;SDS011;70683;52.492;13.416;2023-08-30T08:20:42;5.67;;;2.50;;
80278;SDS011;70683;52.492;13.416;2023-08-30T08:23:09;6.00;;;2.12;;
80278;SDS011;70683;52.492;13.416;2023-08-30T08:25:36;5.50;;;2.50;;
80278;SDS011;70683;52.492;13.416;2023-08-30T08:28:03;5.62;;;2.20;;
80278;SDS011;70683;52.492;13.416;2023-08-30T08:30:30;4.05;;;2.00;;
80278;SDS011;70683;52.492;13.416;2023-08-30T08:32:57;7.25;;;2.40;;
80278;SDS011;70683;52.492;13.416;2023-08-30T08:35:24;4.20;;;2.25;;
80278;SDS011;70683;52.492;13.416;2023-08-30T08:37:51;4.35;;;2.27;;
80278;SDS011;70683;52.492;13.416;2023-08-30T08:40:18;8.33;;;2.47;;
80278;SDS011;70683;52.492;13.416;2023-08-30T08:42:44;5.08;;;2.22;;
80278;SDS011;70683;52.492;13.416;2023-08-30T08:45:15;4.65;;;2.02;;
80278;SDS011;70683;52.492;13.416;2023-08-30T08:47:43;8.58;;;2.27;;
80278;SDS011;70683;52.492;13.416;2023-08-30T08:50:12;5.17;;;1.95;;
80278;SDS011;70683;52.492;13.416;2023-08-30T08:52:39;6.40;;;2.37;;
80278;SDS011;70683;52.492;13.416;2023-08-30T08:55:06;4.67;;;1.92;;
80278;SDS011;70683;52.492;13.416;2023-08-30T08:57:33;8.30;;;2.58;;
80278;SDS011;70683;52.492;13.416;2023-08-30T09:00:02;9.43;;;3.25;;
80278;SDS011;70683;52.492;13.416;2023-08-30T09:02:29;6.22;;;2.22;;
80278;SDS011;70683;52.492;13.416;2023-08-30T09:04:55;11.48;;;4.70;;
80278;SDS011;70683;52.492;13.416;2023-08-30T09:07:25;6.33;;;2.50;;
80278;SDS011;70683;52.492;13.416;2023-08-30T09:09:55;7.37;;;2.25;;
80278;SDS011;70683;52.492;13.416;2023-08-30T09:12:22;6.62;;;1.77;;
80278;SDS011;70683;52.492;13.416;2023-08-30T09:14:55;6.83;;;2.37;;
80278;SDS011;70683;52.492;13.416;2023-08-30T09:17:22;8.65;;;2.00;;
80278;SDS011;70683;52.492;13.416;2023-08-30T09:19:49;4.65;;;2.30;;
80278;SDS011;70683;52.492;13.416;2023-08-30T09:22:16;4.85;;;1.95;;
80278;SDS011;70683;52.492;13.416;2023-08-30T09:24:43;2.95;;;1.60;;
80278;SDS011;70683;52.492;13.416;2023-08-30T09:27:09;7.80;;;1.77;;
80278;SDS011;70683;52.492;13.416;2023-08-30T09:29:36;5.72;;;1.87;;
80278;SDS011;70683;52.492;13.416;2023-08-30T09:32:03;7.62;;;2.00;;
80278;SDS011;70683;52.492;13.416;2023-08-30T09:34:30;2.75;;;1.65;;
80278;SDS011;70683;52.492;13.416;2023-08-30T09:36:57;4.95;;;2.05;;
80278;SDS011;70683;52.492;13.416;2023-08-30T09:39:26;4.67;;;1.87;;
80278;SDS011;70683;52.492;13.416;2023-08-30T09:41:53;8.93;;;2.20;;
80278;SDS011;70683;52.492;13.416;2023-08-30T09:44:21;4.28;;;1.80;;
80278;SDS011;70683;52.492;13.416;2023-08-30T09:46:53;7.40;;;1.75;;
80278;SDS011;70683;52.492;13.416;2023-08-30T09:49:22;3.17;;;1.72;;
80278;SDS011;70683;52.492;13.416;2023-08-30T09:51:50;8.13;;;2.30;;
80278;SDS011;70683;52.492;13.416;2023-08-30T09:54:18;6.42;;;3.22;;
80278;SDS011;70683;52.492;13.416;2023-08-30T09:56:46;4.37;;;2.02;;
80278;SDS011;70683;52.492;13.416;2023-08-30T09:59:14;6.05;;;1.40;;
80278;SDS011;70683;52.492;13.416;2023-08-30T10:01:41;4.12;;;1.75;;
80278;SDS011;70683;52.492;13.416;2023-08-30T10:04:09;7.00;;;1.87;;
80278;SDS011;70683;52.492;13.416;2023-08-30T10:06:37;9.63;;;1.65;;
80278;SDS011;70683;52.492;13.416;2023-08-30T10:09:05;5.83;;;1.98;;
80278;SDS011;70683;52.492;13.416;2023-08-30T10:11:34;4.92;;;1.85;;
80278;SDS011;70683;52.492;13.416;2023-08-30T10:14:04;6.78;;;1.90;;
80278;SDS011;70683;52.492;13.416;2023-08-30T10:16:39;3.22;;;1.65;;
80278;SDS011;70683;52.492;13.416;2023-08-30T10:19:11;7.80;;;1.90;;
80278;SDS011;70683;52.492;13.416;2023-08-30T10:21:43;6.50;;;1.55;;
80278;SDS011;70683;52.492;13.416;2023-08-30T10:24:12;4.12;;;1.67;;
80278;SDS011;70683;52.492;13.416;2023-08-30T10:26:42;7.83;;;1.80;;
80278;SDS011;70683;52.492;13.416;2023-08-30T10:29:12;4.33;;;1.65;;
80278;SDS011;70683;52.492;13.416;2023-08-30T10:31:41;4.95;;;2.02;;
80278;SDS011;70683;52.492;13.416;2023-08-30T10:34:13;4.75;;;1.50;;
80278;SDS011;70683;52.492;13.416;2023-08-30T10:36:42;5.37;;;2.17;;
80278;SDS011;70683;52.492;13.416;2023-08-30T10:39:12;9.15;;;1.62;;
80278;SDS011;70683;52.492;13.416;2023-08-30T10:44:18;12.20;;;3.05;;
80278;SDS011;70683;52.492;13.416;2023-08-30T10:46:51;4.80;;;1.98;;
80278;SDS011;70683;52.492;13.416;2023-08-30T10:49:19;2.33;;;1.30;;
80278;SDS011;70683;52.492;13.416;2023-08-30T10:51:54;6.33;;;2.08;;
80278;SDS011;70683;52.492;13.416;2023-08-30T10:54:22;1.72;;;1.00;;
80278;SDS011;70683;52.492;13.416;2023-08-30T10:56:55;3.77;;;1.87;;
80278;SDS011;70683;52.492;13.416;2023-08-30T10:59:24;5.30;;;1.30;;
80278;SDS011;70683;52.492;13.416;2023-08-30T11:01:51;3.72;;;1.15;;
80278;SDS011;70683;52.492;13.416;2023-08-30T11:04:19;5.95;;;1.52;;
80278;SDS011;70683;52.492;13.416;2023-08-30T11:06:48;1.92;;;0.95;;
80278;SDS011;70683;52.492;13.416;2023-08-30T11:09:18;5.85;;;1.92;;
80278;SDS011;70683;52.492;13.416;2023-08-30T11:11:46;2.27;;;1.25;;
80278;SDS011;70683;52.492;13.416;2023-08-30T11:14:14;4.15;;;1.10;;
80278;SDS011;70683;52.492;13.416;2023-08-30T11:16:42;4.45;;;0.88;;
80278;SDS011;70683;52.492;13.416;2023-08-30T11:19:09;3.17;;;1.30;;
80278;SDS011;70683;52.492;13.416;2023-08-30T11:21:38;1.90;;;0.95;;
80278;SDS011;70683;52.492;13.416;2023-08-30T11:24:07;5.00;;;1.72;;
80278;SDS011;70683;52.492;13.416;2023-08-30T11:26:34;2.40;;;1.10;;
80278;SDS011;70683;52.492;13.416;2023-08-30T11:29:10;4.50;;;1.17;;
80278;SDS011;70683;52.492;13.416;2023-08-30T11:31:37;6.65;;;1.30;;
80278;SDS011;70683;52.492;13.416;2023-08-30T11:34:03;4.37;;;1.12;;
80278;SDS011;70683;52.492;13.416;2023-08-30T11:36:31;3.90;;;1.20;;
80278;SDS011;70683;52.492;13.416;2023-08-30T11:38:59;2.98;;;1.40;;
80278;SDS011;70683;52.492;13.416;2023-08-30T11:41:25;4.10;;;1.17;;
80278;SDS011;70683;52.492;13.416;2023-08-30T11:43:53;3.65;;;1.80;;
80278;SDS011;70683;52.492;13.416;2023-08-30T11:46:20;3.47;;;1.02;;
80278;SDS011;70683;52.492;13.416;2023-08-30T11:48:48;3.40;;;1.00;;
80278;SDS011;70683;52.492;13.416;2023-08-30T11:51:17;7.05;;;1.65;;
80278;SDS011;70683;52.492;13.416;2023-08-30T11:53:45;2.65;;;2.08;;
80278;SDS011;70683;52.492;13.416;2023-08-30T11:56:12;2.87;;;1.17;;
80278;SDS011;70683;52.492;13.416;2023-08-30T11:58:40;4.55;;;1.27;;
80278;SDS011;70683;52.492;13.416;2023-08-30T12:01:07;6.25;;;1.70;;
80278;SDS011;70683;52.492;13.416;2023-08-30T12:03:34;3.12;;;1.50;;
80278;SDS011;70683;52.492;13.416;2023-08-30T12:06:01;2.42;;;1.00;;
80278;SDS011;70683;52.492;13.416;2023-08-30T12:08:30;5.03;;;1.30;;
80278;SDS011;70683;52.492;13.416;2023-08-30T12:10:57;3.08;;;1.15;;
80278;SDS011;70683;52.492;13.416;2023-08-30T12:13:26;1.95;;;1.15;;
80278;SDS011;70683;52.492;13.416;2023-08-30T12:15:55;3.60;;;1.10;;
80278;SDS011;70683;52.492;13.416;2023-08-30T12:18:24;9.40;;;6.62;;
80278;SDS011;70683;52.492;13.416;2023-08-30T12:20:54;2.02;;;1.20;;
80278;SDS011;70683;52.492;13.416;2023-08-30T12:23:22;2.60;;;1.10;;
80278;SDS011;70683;52.492;13.416;2023-08-30T12:28:25;3.60;;;1.37;;
80278;SDS011;70683;52.492;13.416;2023-08-30T12:30:53;5.47;;;1.85;;
80278;SDS011;70683;52.492;13.416;2023-08-30T12:33:20;3.42;;;1.27;;
80278;SDS011;70683;52.492;13.416;2023-08-30T12:35:47;4.28;;;1.40;;
80278;SDS011;70683;52.492;13.416;2023-08-30T12:38:14;1.98;;;1.30;;
80278;SDS011;70683;52.492;13.416;2023-08-30T12:40:44;7.05;;;2.05;;
80278;SDS011;70683;52.492;13.416;2023-08-30T12:43:14;6.92;;;1.57;;
80278;SDS011;70683;52.492;13.416;2023-08-30T12:45:42;5.15;;;2.08;;
80278;SDS011;70683;52.492;13.416;2023-08-30T12:48:10;8.38;;;1.98;;
80278;SDS011;70683;52.492;13.416;2023-08-30T12:50:39;2.62;;;1.35;;
80278;SDS011;70683;52.492;13.416;2023-08-30T12:53:07;7.45;;;1.85;;
80278;SDS011;70683;52.492;13.416;2023-08-30T12:55:34;2.80;;;1.55;;
80278;SDS011;70683;52.492;13.416;2023-08-30T12:58:01;4.40;;;1.75;;
80278;SDS011;70683;52.492;13.416;2023-08-30T13:00:28;3.02;;;2.08;;
80278;SDS011;70683;52.492;13.416;2023-08-30T13:02:55;9.90;;;2.30;;
80278;SDS011;70683;52.492;13.416;2023-08-30T13:05:22;5.33;;;1.70;;
80278;SDS011;70683;52.492;13.416;2023-08-30T13:07:48;2.17;;;1.52;;
80278;SDS011;70683;52.492;13.416;2023-08-30T13:10:15;7.10;;;1.90;;
80278;SDS011;70683;52.492;13.416;2023-08-30T13:12:42;4.55;;;1.65;;
80278;SDS011;70683;52.492;13.416;2023-08-30T13:15:10;5.60;;;2.40;;
80278;SDS011;70683;52.492;13.416;2023-08-30T13:17:37;4.28;;;1.32;;
80278;SDS011;70683;52.492;13.416;2023-08-30T13:20:04;5.08;;;1.72;;
80278;SDS011;70683;52.492;13.416;2023-08-30T13:22:31;4.40;;;1.57;;
80278;SDS011;70683;52.492;13.416;2023-08-30T13:24:58;2.87;;;1.35;;
80278;SDS011;70683;52.492;13.416;2023-08-30T13:27:24;2.50;;;1.50;;
80278;SDS011;70683;52.492;13.416;2023-08-30T13:29:51;6.90;;;1.57;;
80278;SDS011;70683;52.492;13.416;2023-08-30T13:32:18;8.38;;;2.30;;
80278;SDS011;70683;52.492;13.416;2023-08-30T13:34:44;3.00;;;1.57;;
80278;SDS011;70683;52.492;13.416;2023-08-30T13:37:11;3.65;;;1.98;;
80278;SDS011;70683;52.492;13.416;2023-08-30T13:39:38;7.50;;;2.47;;
80278;SDS011;70683;52.492;13.416;2023-08-30T13:42:06;5.17;;;1.95;;
80278;SDS011;70683;52.492;13.416;2023-08-30T13:44:32;4.10;;;1.95;;
80278;SDS011;70683;52.492;13.416;2023-08-30T13:47:01;2.72;;;1.17;;
80278;SDS011;70683;52.492;13.416;2023-08-30T13:49:28;5.40;;;1.87;;
80278;SDS011;70683;52.492;13.416;2023-08-30T13:51:55;3.98;;;1.80;;
80278;SDS011;70683;52.492;13.416;2023-08-30T13:54:24;4.47;;;1.72;;
80278;SDS011;70683;52.492;13.416;2023-08-30T13:56:51;4.10;;;1.52;;
80278;SDS011;70683;52.492;13.416;2023-08-30T13:59:17;3.55;;;1.47;;
80278;SDS011;70683;52.492;13.416;2023-08-30T14:01:45;7.10;;;1.92;;
80278;SDS011;70683;52.492;13.416;2023-08-30T14:04:12;8.50;;;2.27;;
80278;SDS011;70683;52.492;13.416;2023-08-30T14:06:39;3.02;;;1.52;;
80278;SDS011;70683;52.492;13.416;2023-08-30T14:09:06;3.95;;;2.08;;
80278;SDS011;70683;52.492;13.416;2023-08-30T14:11:34;5.92;;;2.00;;
80278;SDS011;70683;52.492;13.416;2023-08-30T14:14:03;3.42;;;1.80;;
80278;SDS011;70683;52.492;13.416;2023-08-30T14:16:30;8.03;;;2.30;;
80278;SDS011;70683;52.492;13.416;2023-08-30T14:18:56;4.17;;;2.05;;
80278;SDS011;70683;52.492;13.416;2023-08-30T14:21:26;3.22;;;2.00;;
80278;SDS011;70683;52.492;13.416;2023-08-30T14:23:53;2.58;;;1.82;;
80278;SDS011;70683;52.492;13.416;2023-08-30T14:26:19;4.92;;;1.82;;
80278;SDS011;70683;52.492;13.416;2023-08-30T14:28:46;3.00;;;1.75;;
80278;SDS011;70683;52.492;13.416;2023-08-30T14:31:13;6.47;;;1.95;;
80278;SDS011;70683;52.492;13.416;2023-08-30T14:33:42;3.67;;;1.70;;
80278;SDS011;70683;52.492;13.416;2023-08-30T14:38:38;7.33;;;2.30;;
80278;SDS011;70683;52.492;13.416;2023-08-30T14:41:06;4.20;;;1.82;;
80278;SDS011;70683;52.492;13.416;2023-08-30T14:43:33;4.00;;;1.65;;
80278;SDS011;70683;52.492;13.416;2023-08-30T14:46:00;3.83;;;1.62;;